createdAt,value
2018-04-29T00:01:18.088Z,100711.52
2018-04-29T00:03:46.303Z,100716.23
2018-04-29T00:06:14.535Z,100712.30
2018-04-29T00:08:43.045Z,100714.80
2018-04-29T00:11:11.275Z,100707.05
2018-04-29T00:13:39.501Z,100704.95
2018-04-29T00:16:07.809Z,100699.31
2018-04-29T00:18:36.073Z,100708.69
2018-04-29T00:21:04.404Z,100697.72
2018-04-29T00:23:33.026Z,100698.89
2018-04-29T00:26:01.247Z,100692.57
2018-04-29T00:28:29.665Z,100686.47
2018-04-29T00:30:58.145Z,100688.34
2018-04-29T00:33:26.373Z,100683.20
2018-04-29T00:35:54.808Z,100684.25
2018-04-29T00:38:23.290Z,100683.94
2018-04-29T00:40:51.475Z,100681.45
2018-04-29T00:43:19.894Z,100685.61
2018-04-29T00:45:48.491Z,100683.97
2018-04-29T00:48:16.677Z,100686.16
2018-04-29T00:50:45.145Z,100690.16
2018-04-29T00:53:13.779Z,100703.09
2018-04-29T00:55:42.010Z,100705.58
2018-04-29T00:58:10.369Z,100698.62
2018-04-29T01:00:39.026Z,100686.32
2018-04-29T01:03:07.231Z,100681.30
2018-04-29T01:05:35.643Z,100670.81
2018-04-29T01:08:04.144Z,100670.91
2018-04-29T01:10:32.364Z,100681.31
2018-04-29T01:13:00.738Z,100679.30
2018-04-29T01:15:29.353Z,100673.17
2018-04-29T01:17:57.572Z,100667.11
2018-04-29T01:20:25.852Z,100655.70
2018-04-29T01:22:54.485Z,100654.96
2018-04-29T01:25:22.697Z,100656.89
2018-04-29T01:27:51.023Z,100663.95
2018-04-29T01:30:19.550Z,100659.70
2018-04-29T01:32:47.796Z,100652.30
2018-04-29T01:35:16.186Z,100656.36
2018-04-29T01:37:44.778Z,100664.42
2018-04-29T01:40:12.966Z,100661.69
2018-04-29T01:42:41.260Z,100670.64
2018-04-29T01:45:09.964Z,100666.97
2018-04-29T01:47:38.165Z,100671.31
2018-04-29T01:50:06.559Z,100667.08
2018-04-29T01:52:35.038Z,100663.98
2018-04-29T01:55:03.288Z,100661.53
2018-04-29T01:57:31.868Z,100644.32
2018-04-29T02:00:00.585Z,100648.53
2018-04-29T02:02:28.822Z,100644.30
2018-04-29T02:04:57.001Z,100643.84
2018-04-29T02:07:25.521Z,100643.16
2018-04-29T02:09:53.722Z,100637.27
2018-04-29T02:12:22.049Z,100637.16
2018-04-29T02:14:50.651Z,100640.37
2018-04-29T02:17:18.848Z,100634.72
2018-04-29T02:19:47.258Z,100629.22
2018-04-29T02:22:15.785Z,100621.38
2018-04-29T02:24:43.978Z,100620.05
2018-04-29T02:27:12.299Z,100616.70
2018-04-29T02:29:40.926Z,100609.17
2018-04-29T02:32:09.119Z,100607.80
2018-04-29T02:34:37.471Z,100608.59
2018-04-29T02:37:06.141Z,100617.53
2018-04-29T02:39:34.341Z,100621.55
2018-04-29T02:42:02.690Z,100619.51
2018-04-29T02:44:31.295Z,100609.88
2018-04-29T02:46:59.561Z,100617.17
2018-04-29T02:49:27.818Z,100623.89
2018-04-29T02:51:56.008Z,100624.77
2018-04-29T02:54:24.257Z,100624.59
2018-04-29T02:56:52.469Z,100617.61
2018-04-29T02:59:21.079Z,100609.55
2018-04-29T03:01:49.288Z,100605.23
2018-04-29T03:04:17.471Z,100607.19
2018-04-29T03:06:45.700Z,100606.30
2018-04-29T03:09:13.882Z,100609.91
2018-04-29T03:11:42.411Z,100606.03
2018-04-29T03:14:10.637Z,100594.33
2018-04-29T03:16:38.846Z,100595.60
2018-04-29T03:21:41.667Z,100587.66
2018-04-29T03:24:09.838Z,100573.66
2018-04-29T03:26:38.014Z,100563.52
2018-04-29T03:29:08.250Z,100557.44
2018-04-29T03:31:36.838Z,100556.81
2018-04-29T03:34:05.044Z,100549.35
2018-04-29T03:36:33.278Z,100551.31
2018-04-29T03:39:01.965Z,100563.42
2018-04-29T03:41:30.667Z,100569.14
2018-04-29T03:43:59.107Z,100577.87
2018-04-29T03:46:27.683Z,100569.48
2018-04-29T03:48:55.917Z,100573.45
2018-04-29T03:51:24.455Z,100572.96
2018-04-29T03:53:52.804Z,100567.33
2018-04-29T03:56:22.258Z,100563.34
2018-04-29T03:59:02.358Z,100559.00
2018-04-29T04:01:51.283Z,100560.80
2018-04-29T04:04:11.301Z,100566.60
2018-04-29T04:06:39.538Z,100563.94
2018-04-29T04:09:08.168Z,100556.81
2018-04-29T04:11:36.403Z,100564.28
2018-04-29T04:14:04.702Z,100569.76
2018-04-29T04:16:33.241Z,100558.02
2018-04-29T04:19:01.421Z,100557.23
2018-04-29T04:21:29.899Z,100547.89
2018-04-29T04:23:58.394Z,100547.70
2018-04-29T04:26:26.592Z,100540.84
2018-04-29T04:28:55.013Z,100551.33
2018-04-29T04:31:24.022Z,100552.45
2018-04-29T04:33:52.212Z,100558.44
2018-04-29T04:36:20.416Z,100568.64
2018-04-29T04:38:48.719Z,100559.64
2018-04-29T04:41:16.912Z,100551.78
2018-04-29T04:43:45.371Z,100550.70
2018-04-29T04:46:13.975Z,100544.19
2018-04-29T04:48:42.164Z,100540.59
2018-04-29T04:51:10.563Z,100555.96
2018-04-29T04:53:39.110Z,100564.18
2018-04-29T04:56:07.348Z,100570.03
2018-04-29T04:58:35.780Z,100567.41
2018-04-29T05:01:04.354Z,100571.97
2018-04-29T05:03:32.544Z,100575.15
2018-04-29T05:06:00.845Z,100580.34
2018-04-29T05:08:29.492Z,100591.05
2018-04-29T05:10:57.718Z,100591.82
2018-04-29T05:13:26.089Z,100593.58
2018-04-29T05:15:55.034Z,100601.42
2018-04-29T05:18:23.219Z,100605.78
2018-04-29T05:20:51.433Z,100592.02
2018-04-29T05:23:19.840Z,100593.84
2018-04-29T05:25:48.180Z,100586.95
2018-04-29T05:28:16.400Z,100582.39
2018-04-29T05:30:45.059Z,100580.08
2018-04-29T05:33:13.277Z,100574.44
2018-04-29T05:35:41.562Z,100560.88
2018-04-29T05:38:10.204Z,100554.05
2018-04-29T05:40:38.438Z,100546.19
2018-04-29T05:43:06.708Z,100542.25
2018-04-29T05:45:35.349Z,100531.39
2018-04-29T05:48:03.578Z,100522.91
2018-04-29T05:50:31.827Z,100516.70
2018-04-29T05:53:00.007Z,100517.53
2018-04-29T05:55:28.190Z,100509.69
2018-04-29T05:57:56.408Z,100498.70
2018-04-29T06:00:25.063Z,100501.75
2018-04-29T06:02:53.386Z,100506.67
2018-04-29T06:05:21.565Z,100516.56
2018-04-29T06:07:50.181Z,100527.80
2018-04-29T06:10:18.390Z,100519.61
2018-04-29T06:12:46.589Z,100503.88
2018-04-29T06:15:15.271Z,100496.67
2018-04-29T06:17:44.368Z,100505.11
2018-04-29T06:20:12.560Z,100500.45
2018-04-29T06:22:41.108Z,100485.59
2018-04-29T06:25:09.313Z,100468.00
2018-04-29T06:27:37.550Z,100453.27
2018-04-29T06:30:06.183Z,100451.23
2018-04-29T06:32:34.442Z,100469.11
2018-04-29T06:35:02.847Z,100480.47
2018-04-29T06:37:31.307Z,100481.59
2018-04-29T06:39:59.532Z,100490.25
2018-04-29T06:42:27.934Z,100487.89
2018-04-29T06:44:56.570Z,100490.54
2018-04-29T06:47:24.766Z,100495.68
2018-04-29T06:49:53.021Z,100502.27
2018-04-29T06:52:21.595Z,100517.09
2018-04-29T06:54:49.803Z,100539.77
2018-04-29T06:57:18.131Z,100545.73
2018-04-29T06:59:46.843Z,100563.19
2018-04-29T07:02:15.052Z,100570.45
2018-04-29T07:04:43.339Z,100559.48
2018-04-29T07:07:11.981Z,100544.39
2018-04-29T07:09:40.193Z,100546.97
2018-04-29T07:12:08.392Z,100528.73
2018-04-29T07:14:37.035Z,100523.45
2018-04-29T07:17:05.223Z,100520.05
2018-04-29T07:19:33.701Z,100528.56
2018-04-29T07:22:02.346Z,100519.30
2018-04-29T07:24:30.579Z,100522.07
2018-04-29T07:26:58.995Z,100521.73
2018-04-29T07:29:27.562Z,100514.75
2018-04-29T07:31:56.140Z,100510.55
2018-04-29T07:34:24.337Z,100509.48
2018-04-29T07:36:53.010Z,100499.80
2018-04-29T07:39:21.220Z,100490.91
2018-04-29T07:41:49.435Z,100489.53
2018-04-29T07:44:17.823Z,100484.05
2018-04-29T07:46:46.067Z,100486.77
2018-04-29T07:49:14.368Z,100500.95
2018-04-29T07:51:42.999Z,100507.27
2018-04-29T07:54:11.342Z,100501.45
2018-04-29T07:56:39.519Z,100487.63
2018-04-29T07:59:08.735Z,100486.80
2018-04-29T08:01:36.977Z,100493.03
2018-04-29T08:04:05.227Z,100496.01
2018-04-29T08:06:33.759Z,100493.01
2018-04-29T08:09:02.002Z,100485.49
2018-04-29T08:11:30.203Z,100460.34
2018-04-29T08:13:58.997Z,100456.64
2018-04-29T08:16:28.642Z,100465.02
2018-04-29T08:18:57.359Z,100466.04
2018-04-29T08:21:25.565Z,100489.20
2018-04-29T08:23:54.143Z,100491.51
2018-04-29T08:26:22.341Z,100494.52
2018-04-29T08:28:50.532Z,100495.16
2018-04-29T08:31:18.792Z,100494.52
2018-04-29T08:33:47.034Z,100484.21
2018-04-29T08:36:15.507Z,100507.23
2018-04-29T08:38:43.995Z,100520.41
2018-04-29T08:41:12.181Z,100554.33
2018-04-29T08:43:40.611Z,100513.33
2018-04-29T08:46:09.158Z,100494.45
2018-04-29T08:48:37.465Z,100481.33
2018-04-29T08:51:05.712Z,100468.30
2018-04-29T08:53:34.384Z,100472.64
2018-04-29T08:56:02.616Z,100490.08
2018-04-29T08:58:30.981Z,100482.48
2018-04-29T09:00:59.525Z,100484.53
2018-04-29T09:03:27.745Z,100495.98
2018-04-29T09:05:56.217Z,100486.60
2018-04-29T09:08:24.760Z,100466.38
2018-04-29T09:10:52.978Z,100474.17
2018-04-29T09:13:21.201Z,100465.16
2018-04-29T09:15:49.836Z,100467.56
2018-04-29T09:18:18.085Z,100448.58
2018-04-29T09:20:46.550Z,100435.52
2018-04-29T09:23:14.965Z,100415.94
2018-04-29T09:25:43.197Z,100411.73
2018-04-29T09:28:12.138Z,100409.91
2018-04-29T09:30:40.575Z,100402.84
2018-04-29T09:33:08.785Z,100407.33
2018-04-29T09:35:36.989Z,100414.64
2018-04-29T09:38:06.156Z,100398.68
2018-04-29T09:40:34.718Z,100404.03
2018-04-29T09:43:02.930Z,100407.50
2018-04-29T09:45:31.168Z,100410.06
2018-04-29T09:47:59.847Z,100420.94
2018-04-29T09:50:28.107Z,100417.50
2018-04-29T09:52:56.383Z,100411.62
2018-04-29T09:55:25.107Z,100400.97
2018-04-29T09:57:53.332Z,100392.87
2018-04-29T10:00:27.465Z,100389.05
2018-04-29T10:03:01.627Z,100392.42
2018-04-29T10:05:30.264Z,100387.17
2018-04-29T10:07:59.401Z,100379.48
2018-04-29T10:10:27.675Z,100369.46
2018-04-29T10:12:55.999Z,100351.16
2018-04-29T10:15:24.211Z,100348.52
2018-04-29T10:17:52.639Z,100344.70
2018-04-29T10:20:21.256Z,100337.38
2018-04-29T10:22:50.043Z,100339.38
2018-04-29T10:25:18.288Z,100341.38
2018-04-29T10:27:46.879Z,100329.38
2018-04-29T10:30:15.088Z,100335.98
2018-04-29T10:32:43.372Z,100317.59
2018-04-29T10:35:11.809Z,100315.21
2018-04-29T10:37:40.013Z,100312.03
2018-04-29T10:40:08.209Z,100300.49
2018-04-29T10:42:36.651Z,100287.02
2018-04-29T10:45:04.885Z,100283.52
2018-04-29T10:47:33.154Z,100275.64
2018-04-29T10:50:01.799Z,100269.62
2018-04-29T10:52:30.031Z,100271.57
2018-04-29T10:54:58.285Z,100264.52
2018-04-29T10:57:26.895Z,100266.02
2018-04-29T10:59:55.073Z,100275.31
2018-04-29T11:02:23.435Z,100286.67
2018-04-29T11:04:52.156Z,100272.83
2018-04-29T11:07:20.360Z,100259.77
2018-04-29T11:09:48.668Z,100263.86
2018-04-29T11:12:17.242Z,100253.69
2018-04-29T11:14:45.459Z,100248.29
2018-04-29T11:17:13.810Z,100254.71
2018-04-29T11:19:42.427Z,100265.69
2018-04-29T11:22:10.709Z,100261.41
2018-04-29T11:24:39.085Z,100264.39
2018-04-29T11:27:07.608Z,100256.33
2018-04-29T11:29:35.813Z,100251.60
2018-04-29T11:32:04.188Z,100258.81
2018-04-29T11:34:32.787Z,100248.05
2018-04-29T11:37:01.017Z,100237.20
2018-04-29T11:39:29.353Z,100244.66
2018-04-29T11:41:58.018Z,100250.73
2018-04-29T11:44:26.276Z,100234.16
2018-04-29T11:46:54.532Z,100224.59
2018-04-29T11:49:23.203Z,100209.06
2018-04-29T11:51:51.435Z,100212.31
2018-04-29T11:54:19.720Z,100205.31
2018-04-29T11:56:48.302Z,100219.09
2018-04-29T11:59:16.531Z,100229.52
2018-04-29T12:01:45.346Z,100226.84
2018-04-29T12:04:14.073Z,100218.00
2018-04-29T12:06:42.311Z,100213.06
2018-04-29T12:09:10.510Z,100199.84
2018-04-29T12:11:39.086Z,100205.17
2018-04-29T12:14:07.337Z,100202.33
2018-04-29T12:16:35.571Z,100186.12
2018-04-29T12:19:04.177Z,100186.29
2018-04-29T12:21:32.386Z,100181.25
2018-04-29T12:24:00.617Z,100179.80
2018-04-29T12:26:28.978Z,100174.22
2018-04-29T12:28:57.207Z,100169.62
2018-04-29T12:31:25.498Z,100166.62
2018-04-29T12:33:54.241Z,100156.59
2018-04-29T12:36:22.471Z,100152.17
2018-04-29T12:38:50.662Z,100145.89
2018-04-29T12:41:19.262Z,100128.64
2018-04-29T12:43:47.464Z,100123.83
2018-04-29T12:46:15.821Z,100117.22
2018-04-29T12:48:44.474Z,100109.98
2018-04-29T12:51:12.776Z,100110.17
2018-04-29T12:53:40.976Z,100116.28
2018-04-29T12:56:09.619Z,100096.23
2018-04-29T12:58:37.845Z,100095.59
2018-04-29T13:01:06.182Z,100089.06
2018-04-29T13:03:34.795Z,100087.82
2018-04-29T13:06:03.005Z,100072.64
2018-04-29T13:08:31.498Z,100061.81
2018-04-29T13:11:00.650Z,100062.77
2018-04-29T13:13:28.837Z,100053.68
2018-04-29T13:15:57.047Z,100060.57
2018-04-29T13:18:25.599Z,100055.30
2018-04-29T13:20:53.826Z,100048.34
2018-04-29T13:23:22.988Z,100043.98
2018-04-29T13:25:51.209Z,100040.52
2018-04-29T13:28:19.855Z,100027.89
2018-04-29T13:30:48.100Z,100018.77
2018-04-29T13:33:16.303Z,100022.73
2018-04-29T13:35:44.594Z,100015.76
2018-04-29T13:38:12.773Z,100014.78
2018-04-29T13:40:41.235Z,100004.70
2018-04-29T13:43:09.480Z,99996.49
2018-04-29T13:45:37.694Z,100006.32
2018-04-29T13:48:06.238Z,99995.28
2018-04-29T13:50:34.514Z,99995.77
2018-04-29T13:53:02.690Z,99992.92
2018-04-29T13:55:31.091Z,99989.28
2018-04-29T13:57:59.305Z,99981.95
2018-04-29T14:00:27.639Z,99972.45
2018-04-29T14:02:56.257Z,99980.12
2018-04-29T14:05:24.438Z,99983.11
2018-04-29T14:07:52.859Z,99972.79
2018-04-29T14:10:21.537Z,99976.88
2018-04-29T14:12:49.687Z,99970.37
2018-04-29T14:15:17.956Z,99966.50
2018-04-29T14:17:46.567Z,99964.53
2018-04-29T14:20:14.842Z,99970.00
2018-04-29T14:22:44.020Z,99975.84
2018-04-29T14:25:12.483Z,99977.78
2018-04-29T14:27:41.134Z,99975.41
2018-04-29T14:30:09.340Z,99974.73
2018-04-29T14:32:37.620Z,99984.97
2018-04-29T14:35:05.845Z,99978.75
2018-04-29T14:37:34.041Z,99964.41
2018-04-29T14:40:02.438Z,99963.97
2018-04-29T14:42:30.646Z,99969.78
2018-04-29T14:44:58.812Z,99958.75
2018-04-29T14:47:27.285Z,99957.86
2018-04-29T14:49:55.521Z,99960.48
2018-04-29T14:52:23.759Z,99952.80
2018-04-29T14:54:52.467Z,99955.20
2018-04-29T14:57:20.672Z,99974.75
2018-04-29T14:59:49.103Z,99969.56
2018-04-29T15:02:17.713Z,99968.43
2018-04-29T15:04:45.925Z,99970.91
2018-04-29T15:07:14.999Z,99966.06
2018-04-29T15:09:43.593Z,99982.64
2018-04-29T15:12:12.363Z,99978.59
2018-04-29T15:14:40.550Z,99965.03
2018-04-29T15:17:09.063Z,99959.95
2018-04-29T15:19:55.007Z,99951.80
2018-04-29T15:22:23.372Z,99943.98
2018-04-29T15:24:52.107Z,99934.61
2018-04-29T15:27:20.353Z,99929.02
2018-04-29T15:29:48.998Z,99913.14
2018-04-29T15:32:17.226Z,99911.37
2018-04-29T15:34:45.423Z,99917.97
2018-04-29T15:37:13.730Z,99927.13
2018-04-29T15:39:41.939Z,99907.86
2018-04-29T15:42:10.512Z,99905.18
2018-04-29T15:44:38.872Z,99918.02
2018-04-29T15:47:07.083Z,99913.20
2018-04-29T15:49:35.422Z,99898.83
2018-04-29T15:52:03.626Z,99902.52
2018-04-29T15:54:31.856Z,99899.50
2018-04-29T15:57:00.049Z,99907.98
2018-04-29T15:59:28.757Z,99903.00
2018-04-29T16:01:56.939Z,99893.54
2018-04-29T16:04:25.227Z,99893.11
2018-04-29T16:06:53.977Z,99893.80
2018-04-29T16:09:22.183Z,99894.00
2018-04-29T16:11:50.397Z,99891.05
2018-04-29T16:14:18.625Z,99883.81
2018-04-29T16:16:46.817Z,99872.58
2018-04-29T16:19:15.187Z,99865.09
2018-04-29T16:21:43.382Z,99856.87
2018-04-29T16:24:11.607Z,99849.86
2018-04-29T16:26:39.849Z,99850.28
2018-04-29T16:29:08.065Z,99846.16
2018-04-29T16:31:36.516Z,99853.20
2018-04-29T16:34:05.010Z,99854.70
2018-04-29T16:36:33.226Z,99859.31
2018-04-29T16:39:01.604Z,99855.48
2018-04-29T16:41:30.120Z,99859.68
2018-04-29T16:43:58.293Z,99852.41
2018-04-29T16:46:26.695Z,99851.23
2018-04-29T16:48:55.260Z,99845.87
2018-04-29T16:51:23.494Z,99838.63
2018-04-29T16:53:51.736Z,99845.93
2018-04-29T16:56:20.400Z,99822.78
2018-04-29T16:58:48.659Z,99817.84
2018-04-29T17:01:16.977Z,99817.68
2018-04-29T17:03:45.539Z,99817.28
2018-04-29T17:06:13.770Z,99816.86
2018-04-29T17:08:41.984Z,99815.09
2018-04-29T17:11:10.566Z,99809.23
2018-04-29T17:13:38.802Z,99801.66
2018-04-29T17:16:07.149Z,99804.78
2018-04-29T17:18:35.698Z,99808.02
2018-04-29T17:21:03.891Z,99805.63
2018-04-29T17:23:32.344Z,99797.05
2018-04-29T17:26:00.900Z,99783.44
2018-04-29T17:28:29.104Z,99780.01
2018-04-29T17:30:57.690Z,99775.98
2018-04-29T17:33:26.795Z,99768.69
2018-04-29T17:35:55.040Z,99765.31
2018-04-29T17:38:23.422Z,99765.31
2018-04-29T17:40:52.319Z,99763.05
2018-04-29T17:43:20.546Z,99758.67
2018-04-29T17:45:48.732Z,99756.38
2018-04-29T17:48:17.404Z,99749.48
2018-04-29T17:50:45.695Z,99743.89
2018-04-29T17:53:14.844Z,99739.34
2018-04-29T17:55:44.060Z,99741.44
2018-04-29T17:58:13.167Z,99733.88
2018-04-29T18:00:41.513Z,99727.02
2018-04-29T18:03:09.744Z,99720.01
2018-04-29T18:05:38.737Z,99716.11
2018-04-29T18:08:07.435Z,99714.80
2018-04-29T18:10:35.692Z,99710.72
2018-04-29T18:13:04.536Z,99711.73
2018-04-29T18:15:33.500Z,99719.19
2018-04-29T18:18:02.591Z,99712.34
2018-04-29T18:20:30.800Z,99714.75
2018-04-29T18:23:00.427Z,99705.43
2018-04-29T18:25:28.858Z,99705.84
2018-04-29T18:27:57.590Z,99702.90
2018-04-29T18:30:25.832Z,99700.96
2018-04-29T18:32:54.663Z,99709.84
2018-04-29T18:35:23.410Z,99705.70
2018-04-29T18:37:52.485Z,99709.07
2018-04-29T18:40:20.748Z,99707.95
2018-04-29T18:42:49.614Z,99708.78
2018-04-29T18:45:18.581Z,99705.80
2018-04-29T18:47:47.711Z,99703.42
2018-04-29T18:50:15.957Z,99693.38
2018-04-29T18:52:44.671Z,99690.42
2018-04-29T18:55:13.605Z,99695.39
2018-04-29T18:57:42.544Z,99697.69
2018-04-29T19:00:10.770Z,99698.22
2018-04-29T19:02:39.826Z,99691.20
2018-04-29T19:05:08.788Z,99686.11
2018-04-29T19:07:37.606Z,99688.09
2018-04-29T19:10:05.929Z,99689.75
2018-04-29T19:12:34.606Z,99687.40
2018-04-29T19:15:03.519Z,99683.33
2018-04-29T19:17:32.582Z,99684.41
2018-04-29T19:20:00.830Z,99680.23
2018-04-29T19:22:29.572Z,99678.75
2018-04-29T19:24:58.538Z,99676.65
2018-04-29T19:27:27.485Z,99677.27
2018-04-29T19:29:55.706Z,99675.39
2018-04-29T19:32:24.584Z,99660.19
2018-04-29T19:34:53.503Z,99655.48
2018-04-29T19:37:22.537Z,99646.98
2018-04-29T19:39:50.866Z,99633.71
2018-04-29T19:42:19.661Z,99624.59
2018-04-29T19:44:48.551Z,99607.00
2018-04-29T19:47:18.235Z,99602.12
2018-04-29T19:49:46.561Z,99598.52
2018-04-29T19:52:14.756Z,99590.37
2018-04-29T19:54:43.637Z,99592.45
2018-04-29T19:57:12.474Z,99594.34
2018-04-29T19:59:40.794Z,99585.02
2018-04-29T20:02:09.527Z,99576.20
2018-04-29T20:04:38.478Z,99580.56
2018-04-29T20:07:07.504Z,99567.86
2018-04-29T20:09:35.740Z,99561.85
2018-04-29T20:12:04.496Z,99556.08
2018-04-29T20:14:33.477Z,99543.28
2018-04-29T20:17:02.479Z,99531.63
2018-04-29T20:19:30.680Z,99528.39
2018-04-29T20:21:59.492Z,99518.73
2018-04-29T20:24:28.343Z,99512.91
2018-04-29T20:26:57.418Z,99515.14
2018-04-29T20:29:25.678Z,99522.86
2018-04-29T20:31:54.449Z,99524.55
2018-04-29T20:34:23.457Z,99512.73
2018-04-29T20:36:52.398Z,99507.33
2018-04-29T20:39:20.608Z,99487.48
2018-04-29T20:41:49.498Z,99468.81
2018-04-29T20:44:18.430Z,99462.28
2018-04-29T20:46:47.463Z,99460.45
2018-04-29T20:49:15.643Z,99456.92
2018-04-29T20:51:44.506Z,99456.92
2018-04-29T20:54:13.407Z,99439.75
2018-04-29T20:56:41.601Z,99431.72
2018-04-29T20:59:09.836Z,99419.74
2018-04-29T21:01:38.520Z,99410.59
2018-04-29T21:04:06.730Z,99408.41
2018-04-29T21:06:34.935Z,99391.61
2018-04-29T21:09:03.710Z,99384.61
2018-04-29T21:11:32.078Z,99377.59
2018-04-29T21:14:00.294Z,99377.06
2018-04-29T21:16:28.780Z,99366.20
2018-04-29T21:18:57.044Z,99356.80
2018-04-29T21:21:25.245Z,99351.08
2018-04-29T21:23:53.848Z,99346.10
2018-04-29T21:26:22.139Z,99343.86
2018-04-29T21:28:50.342Z,99338.78
2018-04-29T21:31:19.000Z,99340.70
2018-04-29T21:33:47.247Z,99329.95
2018-04-29T21:36:15.472Z,99320.23
2018-04-29T21:38:44.186Z,99313.87
2018-04-29T21:41:12.413Z,99304.50
2018-04-29T21:43:40.590Z,99301.36
2018-04-29T21:46:09.039Z,99302.63
2018-04-29T21:48:37.264Z,99283.08
2018-04-29T21:51:05.721Z,99294.03
2018-04-29T21:53:34.213Z,99289.88
2018-04-29T21:56:02.424Z,99292.49
2018-04-29T21:58:30.797Z,99293.29
2018-04-29T22:00:59.387Z,99287.58
2018-04-29T22:03:27.664Z,99291.00
2018-04-29T22:05:56.348Z,99311.77
2018-04-29T22:08:24.899Z,99351.30
2018-04-29T22:10:53.100Z,99386.14
2018-04-29T22:13:21.589Z,99387.02
2018-04-29T22:15:50.201Z,99390.97
2018-04-29T22:18:18.456Z,99343.00
2018-04-29T22:20:46.730Z,99294.12
2018-04-29T22:23:15.281Z,99277.05
2018-04-29T22:25:43.499Z,99292.19
2018-04-29T22:28:11.823Z,99301.81
2018-04-29T22:30:40.459Z,99350.52
2018-04-29T22:33:08.679Z,99397.99
2018-04-29T22:35:37.041Z,99454.35
2018-04-29T22:38:05.739Z,99475.88
2018-04-29T22:40:33.932Z,99483.78
2018-04-29T22:43:02.281Z,99467.88
2018-04-29T22:45:30.867Z,99473.50
2018-04-29T22:47:59.091Z,99471.48
2018-04-29T22:50:27.516Z,99472.34
2018-04-29T22:52:56.383Z,99468.33
2018-04-29T22:55:24.638Z,99450.38
2018-04-29T22:57:52.860Z,99436.74
2018-04-29T23:00:21.496Z,99435.97
2018-04-29T23:02:49.755Z,99439.42
2018-04-29T23:05:18.038Z,99436.05
2018-04-29T23:07:46.584Z,99425.39
2018-04-29T23:10:16.277Z,99429.32
2018-04-29T23:12:44.529Z,99425.70
2018-04-29T23:15:12.810Z,99452.23
2018-04-29T23:17:41.497Z,99475.31
2018-04-29T23:20:09.773Z,99473.52
2018-04-29T23:22:38.145Z,99440.55
2018-04-29T23:25:06.697Z,99419.70
2018-04-29T23:27:34.929Z,99415.77
2018-04-29T23:30:03.282Z,99424.77
2018-04-29T23:32:32.015Z,99430.55
2018-04-29T23:35:00.269Z,99486.73
2018-04-29T23:37:28.493Z,99480.13
2018-04-29T23:39:57.130Z,99456.46
2018-04-29T23:42:25.336Z,99443.81
2018-04-29T23:44:53.606Z,99422.37
2018-04-29T23:47:22.147Z,99400.92
2018-04-29T23:49:50.372Z,99386.80
2018-04-29T23:52:18.779Z,99344.41
2018-04-29T23:54:47.485Z,99350.73
2018-04-29T23:57:15.691Z,99338.37
2018-04-29T23:59:44.123Z,99323.84
